createdAt,value
2022-08-10T00:00:32.154Z,19.30
2022-08-10T00:03:00.793Z,19.30
2022-08-10T00:05:28.043Z,19.30
2022-08-10T00:08:10.823Z,19.20
2022-08-10T00:10:49.232Z,19.10
2022-08-10T00:13:16.061Z,19.10
2022-08-10T00:15:52.079Z,19.00
2022-08-10T00:18:34.250Z,19.00
2022-08-10T00:21:02.518Z,18.90
2022-08-10T00:23:29.339Z,18.80
2022-08-10T00:25:56.116Z,18.80
2022-08-10T00:28:22.854Z,18.80
2022-08-10T00:30:49.769Z,18.80
2022-08-10T00:33:16.945Z,18.70
2022-08-10T00:35:43.873Z,18.70
2022-08-10T00:38:10.899Z,18.70
2022-08-10T00:40:38.215Z,18.60
2022-08-10T00:43:06.787Z,18.60
2022-08-10T00:45:34.468Z,18.60
2022-08-10T00:48:01.254Z,18.50
2022-08-10T00:50:29.480Z,18.50
2022-08-10T00:52:56.454Z,18.50
2022-08-10T00:55:23.920Z,18.40
2022-08-10T00:57:54.958Z,18.30
2022-08-10T01:00:23.409Z,18.30
2022-08-10T01:02:50.273Z,18.30
2022-08-10T01:05:17.231Z,18.20
2022-08-10T01:08:05.720Z,18.10
2022-08-10T01:10:43.991Z,18.00
2022-08-10T01:13:40.551Z,17.90
2022-08-10T01:16:41.842Z,17.90
2022-08-10T01:19:46.696Z,17.80
2022-08-10T01:22:32.264Z,17.90
2022-08-10T01:25:33.474Z,17.90
2022-08-10T01:28:41.086Z,17.90
2022-08-10T01:31:12.748Z,17.90
2022-08-10T01:34:02.666Z,17.90
2022-08-10T01:36:34.806Z,17.80
2022-08-10T01:39:04.106Z,17.80
2022-08-10T01:41:46.499Z,17.80
2022-08-10T01:44:33.848Z,17.90
2022-08-10T01:47:24.319Z,17.80
2022-08-10T01:49:59.932Z,17.80
2022-08-10T01:52:30.852Z,17.80
2022-08-10T01:54:59.416Z,17.80
2022-08-10T01:57:28.905Z,17.80
2022-08-10T02:00:02.693Z,17.80
2022-08-10T02:02:31.504Z,17.70
2022-08-10T02:04:59.807Z,17.70
2022-08-10T02:07:28.537Z,17.70
2022-08-10T02:09:58.971Z,17.70
2022-08-10T02:12:30.056Z,17.60
2022-08-10T02:15:04.084Z,17.50
2022-08-10T02:17:57.443Z,17.60
2022-08-10T02:20:31.648Z,17.50
2022-08-10T02:23:04.549Z,17.50
2022-08-10T02:25:40.581Z,17.60
2022-08-10T02:28:27.528Z,17.60
2022-08-10T02:31:06.654Z,17.60
2022-08-10T02:33:37.177Z,17.60
2022-08-10T02:36:10.073Z,17.60
2022-08-10T02:38:57.686Z,17.60
2022-08-10T02:45:02.365Z,17.60
2022-08-10T02:45:18.932Z,17.60
2022-08-10T02:47:50.977Z,17.60
2022-08-10T02:50:31.294Z,17.60
2022-08-10T02:53:51.653Z,17.60
2022-08-10T02:56:09.820Z,17.50
2022-08-10T02:58:56.809Z,17.50
2022-08-10T03:01:27.097Z,17.50
2022-08-10T03:03:59.226Z,17.40
2022-08-10T03:06:32.618Z,17.40
2022-08-10T03:09:01.749Z,17.40
2022-08-10T03:12:35.347Z,17.40
2022-08-10T03:14:18.863Z,17.30
2022-08-10T03:16:47.017Z,17.40
2022-08-10T03:20:34.505Z,17.40
2022-08-10T03:22:03.988Z,17.30
2022-08-10T03:24:33.434Z,17.40
2022-08-10T03:27:01.474Z,17.40
2022-08-10T03:29:29.029Z,17.30
2022-08-10T03:31:56.930Z,17.30
2022-08-10T03:34:33.630Z,17.30
2022-08-10T03:37:01.060Z,17.30
2022-08-10T03:39:28.510Z,17.30
2022-08-10T03:42:00.457Z,17.30
2022-08-10T03:44:33.640Z,17.30
2022-08-10T03:47:01.151Z,17.30
2022-08-10T03:49:31.000Z,17.30
2022-08-10T03:51:58.714Z,17.20
2022-08-10T03:54:26.198Z,17.20
2022-08-10T03:56:53.237Z,17.20
2022-08-10T03:59:20.884Z,17.20
2022-08-10T04:02:44.421Z,17.20
2022-08-10T04:04:36.855Z,17.20
2022-08-10T04:07:05.071Z,17.20
2022-08-10T04:09:54.664Z,17.20
2022-08-10T04:12:21.677Z,17.20
2022-08-10T04:14:51.144Z,17.20
2022-08-10T04:17:56.991Z,17.20
2022-08-10T04:20:20.549Z,17.20
2022-08-10T04:22:50.731Z,17.20
2022-08-10T04:25:18.245Z,17.10
2022-08-10T04:27:46.271Z,17.10
2022-08-10T04:30:13.435Z,17.10
2022-08-10T04:32:42.961Z,17.10
2022-08-10T04:35:10.937Z,17.00
2022-08-10T04:37:47.237Z,17.00
2022-08-10T04:40:28.266Z,16.90
2022-08-10T04:43:02.298Z,16.90
2022-08-10T04:45:50.287Z,16.80
2022-08-10T04:48:43.296Z,16.90
2022-08-10T04:51:17.656Z,16.90
2022-08-10T04:54:05.496Z,17.00
2022-08-10T04:56:35.614Z,17.00
2022-08-10T04:59:02.980Z,17.20
2022-08-10T05:02:22.508Z,17.20
2022-08-10T05:04:34.550Z,17.20
2022-08-10T05:07:05.420Z,17.30
2022-08-10T05:09:32.159Z,17.30
2022-08-10T05:11:58.916Z,17.30
2022-08-10T05:14:25.814Z,17.30
2022-08-10T05:16:52.537Z,17.40
2022-08-10T05:20:01.629Z,17.40
2022-08-10T05:22:06.303Z,17.50
2022-08-10T05:24:33.103Z,17.70
2022-08-10T05:27:09.272Z,17.80
2022-08-10T05:29:36.564Z,17.90
2022-08-10T05:32:03.655Z,18.20
2022-08-10T05:34:30.423Z,18.20
2022-08-10T05:36:58.513Z,18.30
2022-08-10T05:39:30.458Z,18.50
2022-08-10T05:42:01.066Z,18.60
2022-08-10T05:44:29.370Z,18.70
2022-08-10T05:46:56.194Z,18.70
2022-08-10T05:49:22.932Z,18.80
2022-08-10T05:51:49.829Z,18.80
2022-08-10T05:54:16.735Z,18.90
2022-08-10T05:56:56.709Z,18.90
2022-08-10T06:00:33.870Z,19.00
2022-08-10T06:02:43.914Z,19.10
2022-08-10T06:05:32.840Z,19.20
2022-08-10T06:08:05.844Z,19.30
2022-08-10T06:10:35.347Z,19.30
2022-08-10T06:13:31.036Z,19.50
2022-08-10T06:16:05.427Z,19.60
2022-08-10T06:18:32.773Z,19.60
2022-08-10T06:21:00.788Z,19.70
2022-08-10T06:23:29.043Z,19.70
2022-08-10T06:26:10.762Z,19.80
2022-08-10T06:28:54.020Z,19.90
2022-08-10T06:31:46.802Z,19.90
2022-08-10T06:34:15.609Z,20.00
2022-08-10T06:36:44.489Z,20.10
2022-08-10T06:39:32.195Z,20.20
2022-08-10T06:42:14.571Z,20.50
2022-08-10T06:45:12.217Z,20.70
2022-08-10T06:47:50.037Z,21.00
2022-08-10T06:50:56.006Z,21.10
2022-08-10T06:53:53.401Z,21.30
2022-08-10T06:56:37.802Z,21.40
2022-08-10T06:59:22.402Z,21.60
2022-08-10T07:01:58.591Z,21.80
2022-08-10T07:04:34.057Z,22.00
2022-08-10T07:07:06.011Z,22.10
2022-08-10T07:09:36.880Z,22.20
2022-08-10T07:12:09.055Z,22.40
2022-08-10T07:14:42.391Z,23.10
2022-08-10T07:17:24.856Z,24.40
2022-08-10T07:19:59.350Z,25.70
2022-08-10T07:23:54.784Z,27.10
2022-08-10T07:30:32.283Z,28.20
2022-08-10T07:35:33.194Z,30.80
2022-08-10T07:40:33.503Z,31.70
2022-08-10T07:43:01.019Z,32.60
2022-08-10T07:45:31.862Z,32.90
2022-08-10T07:53:08.496Z,34.50
2022-08-10T07:56:04.512Z,34.50
2022-08-10T07:58:31.080Z,34.60
2022-08-10T08:01:00.475Z,35.20
2022-08-10T08:03:29.469Z,35.30
2022-08-10T08:06:05.016Z,35.50
2022-08-10T08:08:40.743Z,35.70
2022-08-10T08:11:09.099Z,36.20
2022-08-10T08:13:53.609Z,36.60
2022-08-10T08:16:23.033Z,37.00
2022-08-10T08:24:06.051Z,37.20
2022-08-10T08:27:03.643Z,37.70
2022-08-10T08:29:35.108Z,37.90
2022-08-10T08:32:04.173Z,38.10
2022-08-10T08:34:38.524Z,38.20
2022-08-10T08:37:09.033Z,38.30
2022-08-10T08:39:37.184Z,38.50
2022-08-10T08:42:35.129Z,38.60
2022-08-10T08:46:00.708Z,38.60
2022-08-10T08:48:56.649Z,38.90
2022-08-10T08:52:11.376Z,39.20
2022-08-10T08:55:04.110Z,39.30
2022-08-10T08:58:01.637Z,39.40
2022-08-10T09:01:13.432Z,39.50
2022-08-10T09:03:58.793Z,39.70
2022-08-10T09:06:54.636Z,39.90
2022-08-10T09:09:45.785Z,39.90
2022-08-10T09:12:21.391Z,40.00
2022-08-10T09:15:03.457Z,40.00
2022-08-10T09:17:38.983Z,40.10
2022-08-10T09:20:22.549Z,40.10
2022-08-10T09:23:11.977Z,40.10
2022-08-10T09:25:45.529Z,40.00
2022-08-10T09:28:22.332Z,40.10
2022-08-10T09:31:22.128Z,40.30
2022-08-10T09:36:22.289Z,40.50
2022-08-10T09:37:01.784Z,40.70
2022-08-10T09:40:56.284Z,40.80
2022-08-10T09:43:14.129Z,40.90
2022-08-10T09:45:39.761Z,40.90
2022-08-10T09:48:27.502Z,40.80
2022-08-10T09:51:41.663Z,40.40
2022-08-10T09:53:55.949Z,40.20
2022-08-10T09:56:26.768Z,40.00
2022-08-10T09:59:59.311Z,39.80
2022-08-10T10:02:27.431Z,39.70
2022-08-10T10:05:02.438Z,39.70
2022-08-10T10:07:30.287Z,39.80
2022-08-10T10:10:22.789Z,39.80
2022-08-10T10:13:15.186Z,39.80
2022-08-10T10:15:57.122Z,39.70
2022-08-10T10:18:30.006Z,39.60
2022-08-10T10:21:55.119Z,39.40
2022-08-10T10:24:22.931Z,39.20
2022-08-10T10:27:00.194Z,39.00
2022-08-10T10:29:56.989Z,39.00
2022-08-10T10:32:37.286Z,38.40
2022-08-10T10:38:01.227Z,37.40
2022-08-10T10:40:27.516Z,36.00
2022-08-10T10:43:26.306Z,35.70
2022-08-10T10:46:11.129Z,35.00
2022-08-10T10:48:42.881Z,34.20
2022-08-10T10:51:32.809Z,33.60
2022-08-10T10:54:13.251Z,33.10
2022-08-10T10:56:50.492Z,32.60
2022-08-10T10:59:54.895Z,32.20
2022-08-10T11:02:38.889Z,32.00
2022-08-10T11:05:24.422Z,31.70
2022-08-10T11:08:01.100Z,31.60
2022-08-10T11:16:37.167Z,31.10
2022-08-10T11:19:15.728Z,30.90
2022-08-10T11:22:40.232Z,30.70
2022-08-10T11:25:25.677Z,30.40
2022-08-10T11:28:10.660Z,30.40
2022-08-10T11:30:55.389Z,30.40
2022-08-10T11:34:11.237Z,30.40
2022-08-10T11:36:33.429Z,30.40
2022-08-10T11:39:17.920Z,30.30
2022-08-10T11:42:11.933Z,30.30
2022-08-10T11:47:44.875Z,30.30
2022-08-10T11:50:28.363Z,30.30
2022-08-10T11:53:09.116Z,30.40
2022-08-10T11:55:36.535Z,30.50
2022-08-10T11:58:30.105Z,30.50
2022-08-10T12:01:02.088Z,30.50
2022-08-10T12:03:34.906Z,30.50
2022-08-10T12:06:04.314Z,30.30
2022-08-10T12:11:25.532Z,29.50
2022-08-10T12:14:20.130Z,29.20
2022-08-10T12:16:51.422Z,29.20
2022-08-10T12:20:01.148Z,29.40
2022-08-10T12:23:07.627Z,29.40
2022-08-10T12:26:02.222Z,29.30
2022-08-10T12:28:53.971Z,29.30
2022-08-10T12:31:40.184Z,29.20
2022-08-10T12:34:18.640Z,29.20
2022-08-10T12:36:53.702Z,29.20
2022-08-10T12:39:26.712Z,29.20
2022-08-10T12:42:10.372Z,29.20
2022-08-10T12:44:47.389Z,29.10
2022-08-10T12:47:22.042Z,29.10
2022-08-10T12:50:33.118Z,28.90
2022-08-10T12:53:15.029Z,28.80
2022-08-10T12:55:43.247Z,28.40
2022-08-10T13:01:16.301Z,28.40
2022-08-10T13:04:22.420Z,28.50
2022-08-10T13:06:41.044Z,28.60
2022-08-10T13:09:14.426Z,28.70
2022-08-10T13:12:36.017Z,28.80
2022-08-10T13:14:59.775Z,28.90
2022-08-10T13:17:32.478Z,28.90
2022-08-10T13:20:16.223Z,29.00
2022-08-10T13:22:44.219Z,29.20
2022-08-10T13:25:12.549Z,29.20
2022-08-10T13:28:01.138Z,29.10
2022-08-10T13:30:35.620Z,29.00
2022-08-10T13:33:07.363Z,28.80
2022-08-10T13:35:36.047Z,28.80
2022-08-10T13:38:05.278Z,28.80
2022-08-10T13:40:33.592Z,28.70
2022-08-10T13:43:05.537Z,28.70
2022-08-10T13:45:33.769Z,28.70
2022-08-10T13:48:11.580Z,28.80
2022-08-10T13:50:40.178Z,28.80
2022-08-10T13:53:15.867Z,28.90
2022-08-10T13:55:55.462Z,29.00
2022-08-10T13:58:39.618Z,29.10
2022-08-10T14:01:13.144Z,29.00
2022-08-10T14:03:42.728Z,28.90
2022-08-10T14:06:15.351Z,28.80
2022-08-10T14:08:50.232Z,28.70
2022-08-10T14:11:19.588Z,28.60
2022-08-10T14:14:21.152Z,28.50
2022-08-10T14:16:49.035Z,28.50
2022-08-10T14:19:28.014Z,28.50
2022-08-10T14:21:56.565Z,28.50
2022-08-10T14:24:26.284Z,28.40
2022-08-10T14:27:07.949Z,28.30
2022-08-10T14:29:49.363Z,28.30
2022-08-10T14:32:21.562Z,28.10
2022-08-10T14:36:14.935Z,28.00
2022-08-10T14:40:08.482Z,27.70
2022-08-10T14:42:48.397Z,27.60
2022-08-10T14:45:25.066Z,27.50
2022-08-10T14:48:01.278Z,27.40
2022-08-10T14:50:31.990Z,27.30
2022-08-10T14:53:09.283Z,27.30
2022-08-10T14:55:58.979Z,27.30
2022-08-10T14:59:06.289Z,27.30
2022-08-10T15:02:01.288Z,27.30
2022-08-10T15:04:16.417Z,27.20
2022-08-10T15:06:55.377Z,27.10
2022-08-10T15:09:25.254Z,27.10
2022-08-10T15:12:12.190Z,27.10
2022-08-10T15:14:46.705Z,27.00
2022-08-10T15:17:23.469Z,26.90
2022-08-10T15:20:02.142Z,26.80
2022-08-10T15:22:38.172Z,26.70
2022-08-10T15:25:18.689Z,26.60
2022-08-10T15:27:55.824Z,26.60
2022-08-10T15:30:31.521Z,26.60
2022-08-10T15:34:03.686Z,26.60
2022-08-10T15:36:34.007Z,26.50
2022-08-10T15:39:04.140Z,26.50
2022-08-10T15:41:58.876Z,26.60
2022-08-10T15:44:44.502Z,26.60
2022-08-10T15:47:45.933Z,26.60
2022-08-10T15:50:23.480Z,26.60
2022-08-10T15:53:00.670Z,26.60
2022-08-10T15:55:42.852Z,26.60
2022-08-10T15:58:19.739Z,26.70
2022-08-10T16:01:02.878Z,26.60
2022-08-10T16:04:13.109Z,26.60
2022-08-10T16:06:49.346Z,26.60
2022-08-10T16:10:24.138Z,26.60
2022-08-10T16:12:15.083Z,26.60
2022-08-10T16:14:47.622Z,26.50
2022-08-10T16:17:16.249Z,26.50
2022-08-10T16:19:52.536Z,26.50
2022-08-10T16:22:34.173Z,26.40
2022-08-10T16:25:12.383Z,26.40
2022-08-10T16:27:40.524Z,26.30
2022-08-10T16:30:08.115Z,26.30
2022-08-10T16:32:36.599Z,26.30
2022-08-10T16:35:09.225Z,26.30
2022-08-10T16:37:58.939Z,26.30
2022-08-10T16:40:28.059Z,26.30
2022-08-10T16:42:56.583Z,26.20
2022-08-10T16:45:33.478Z,26.20
2022-08-10T16:48:01.508Z,26.20
2022-08-10T16:50:42.747Z,26.20
2022-08-10T16:53:13.576Z,26.10
2022-08-10T16:55:49.912Z,26.00
2022-08-10T16:58:30.272Z,25.90
2022-08-10T17:01:16.784Z,25.80
2022-08-10T17:04:06.155Z,25.80
2022-08-10T17:06:41.165Z,25.70
2022-08-10T17:09:17.981Z,25.60
2022-08-10T17:11:49.032Z,25.50
2022-08-10T17:14:16.289Z,25.50
2022-08-10T17:16:45.710Z,25.40
2022-08-10T17:19:14.930Z,25.40
2022-08-10T17:21:51.446Z,25.30
2022-08-10T17:24:21.345Z,25.30
2022-08-10T17:26:49.648Z,25.20
2022-08-10T17:29:57.642Z,25.10
2022-08-10T17:34:49.941Z,25.00
2022-08-10T17:42:20.773Z,25.00
2022-08-10T17:44:51.156Z,24.80
2022-08-10T17:47:19.422Z,24.80
2022-08-10T17:49:47.925Z,24.70
2022-08-10T17:52:24.907Z,24.70
2022-08-10T17:54:59.561Z,24.60
2022-08-10T17:57:28.357Z,24.60
2022-08-10T17:59:56.339Z,24.50
2022-08-10T18:02:27.838Z,24.40
2022-08-10T18:04:58.465Z,24.40
2022-08-10T18:07:39.361Z,24.30
2022-08-10T18:10:09.786Z,24.30
2022-08-10T18:12:50.287Z,24.20
2022-08-10T18:15:22.319Z,24.20
2022-08-10T18:17:59.189Z,24.10
2022-08-10T18:20:35.615Z,24.10
2022-08-10T18:23:03.713Z,24.00
2022-08-10T18:25:36.361Z,24.00
2022-08-10T18:28:07.548Z,23.90
2022-08-10T18:30:45.701Z,23.90
2022-08-10T18:33:14.239Z,23.80
2022-08-10T18:35:43.783Z,23.80
2022-08-10T18:38:12.971Z,23.70
2022-08-10T18:40:43.901Z,23.60
2022-08-10T18:44:05.821Z,23.60
2022-08-10T18:46:01.187Z,23.50
2022-08-10T18:48:38.771Z,23.50
2022-08-10T18:51:07.872Z,23.40
2022-08-10T18:53:48.046Z,23.30
2022-08-10T18:56:29.375Z,23.30
2022-08-10T18:59:18.014Z,23.20
2022-08-10T19:02:17.282Z,23.20
2022-08-10T19:04:46.806Z,23.10
2022-08-10T19:10:04.643Z,23.00
2022-08-10T19:12:43.186Z,23.00
2022-08-10T19:15:40.287Z,22.90
2022-08-10T19:18:22.831Z,22.80
2022-08-10T19:20:58.275Z,22.80
2022-08-10T19:23:39.412Z,22.70
2022-08-10T19:26:44.557Z,22.70
2022-08-10T19:30:05.072Z,22.60
2022-08-10T19:35:08.412Z,22.50
2022-08-10T19:37:59.855Z,22.50
2022-08-10T19:40:47.670Z,22.30
2022-08-10T19:46:14.612Z,22.30
2022-08-10T19:48:48.102Z,22.20
2022-08-10T19:51:48.880Z,22.20
2022-08-10T19:54:36.725Z,22.10
2022-08-10T19:57:24.382Z,22.00
2022-08-10T20:00:15.876Z,22.10
2022-08-10T20:03:13.071Z,22.00
2022-08-10T20:06:18.201Z,22.00
2022-08-10T20:09:07.351Z,22.00
2022-08-10T20:12:00.076Z,21.90
2022-08-10T20:14:33.826Z,21.90
2022-08-10T20:17:08.880Z,21.90
2022-08-10T20:19:54.843Z,21.80
2022-08-10T20:22:32.256Z,21.80
2022-08-10T20:30:33.159Z,21.70
2022-08-10T20:33:30.318Z,21.70
2022-08-10T20:36:05.392Z,21.60
2022-08-10T20:41:21.181Z,21.60
2022-08-10T20:44:23.100Z,21.50
2022-08-10T20:46:59.218Z,21.50
2022-08-10T20:49:43.209Z,21.40
2022-08-10T20:54:52.183Z,21.30
2022-08-10T20:57:54.310Z,21.20
2022-08-10T21:00:23.355Z,21.20
2022-08-10T21:03:05.743Z,21.10
2022-08-10T21:05:40.624Z,21.00
2022-08-10T21:08:19.424Z,21.00
2022-08-10T21:11:21.954Z,20.90
2022-08-10T21:13:58.285Z,20.90
2022-08-10T21:16:47.505Z,20.80
2022-08-10T21:22:20.695Z,20.80
2022-08-10T21:25:01.747Z,20.60
2022-08-10T21:28:07.749Z,20.70
2022-08-10T21:30:58.591Z,20.60
2022-08-10T21:33:43.427Z,20.60
2022-08-10T21:36:17.743Z,20.60
2022-08-10T21:39:10.051Z,20.50
2022-08-10T21:42:32.154Z,20.50
2022-08-10T21:45:59.276Z,20.40
2022-08-10T21:49:14.771Z,20.40
2022-08-10T21:52:39.272Z,20.30
2022-08-10T21:55:56.032Z,20.30
2022-08-10T21:58:50.434Z,20.20
2022-08-10T22:01:43.987Z,20.10
2022-08-10T22:04:29.533Z,20.10
2022-08-10T22:07:20.152Z,20.10
2022-08-10T22:10:09.196Z,20.00
2022-08-10T22:13:01.688Z,20.00
2022-08-10T22:16:10.429Z,19.90
2022-08-10T22:19:02.761Z,19.90
2022-08-10T22:22:19.777Z,19.90
2022-08-10T22:25:21.459Z,19.80
2022-08-10T22:28:12.382Z,19.70
2022-08-10T22:31:30.116Z,19.70
2022-08-10T22:34:33.100Z,19.60
2022-08-10T22:37:43.268Z,19.60
2022-08-10T22:40:43.042Z,19.50
2022-08-10T22:43:37.488Z,19.40
2022-08-10T22:46:28.458Z,19.40
2022-08-10T22:49:01.623Z,19.40
2022-08-10T22:51:35.446Z,19.40
2022-08-10T22:54:43.793Z,19.40
2022-08-10T22:57:34.394Z,19.40
2022-08-10T23:00:30.753Z,19.30
2022-08-10T23:03:22.066Z,19.30
2022-08-10T23:06:13.487Z,19.30
2022-08-10T23:08:47.005Z,19.20
2022-08-10T23:11:25.425Z,19.20
2022-08-10T23:14:00.469Z,19.20
2022-08-10T23:16:49.230Z,19.10
2022-08-10T23:19:28.798Z,19.00
2022-08-10T23:22:05.095Z,19.00
2022-08-10T23:24:43.367Z,19.00
2022-08-10T23:27:38.502Z,18.90
2022-08-10T23:30:09.802Z,18.90
2022-08-10T23:32:40.805Z,18.90
2022-08-10T23:36:31.734Z,18.80
2022-08-10T23:38:05.914Z,18.80
2022-08-10T23:40:33.452Z,18.80
2022-08-10T23:43:02.683Z,18.70
2022-08-10T23:45:52.278Z,18.70
2022-08-10T23:48:20.571Z,18.70
2022-08-10T23:50:59.204Z,18.60
2022-08-10T23:53:35.997Z,18.60
2022-08-10T23:56:16.502Z,18.60
2022-08-10T23:58:50.398Z,18.60
